sensor_id;sensor_type;location;lat;lon;timestamp;P1;durP1;ratioP1;P2;durP2;ratioP2
21095;SDS011;10706;49.036;12.112;2022-08-06T00:01:52;11.45;;;4.10;;
21095;SDS011;10706;49.036;12.112;2022-08-06T00:04:20;10.30;;;4.40;;
21095;SDS011;10706;49.036;12.112;2022-08-06T00:06:47;12.40;;;4.25;;
21095;SDS011;10706;49.036;12.112;2022-08-06T00:09:13;10.90;;;4.68;;
21095;SDS011;10706;49.036;12.112;2022-08-06T00:11:39;13.90;;;4.80;;
21095;SDS011;10706;49.036;12.112;2022-08-06T00:14:06;9.90;;;3.95;;
21095;SDS011;10706;49.036;12.112;2022-08-06T00:16:33;11.15;;;4.55;;
21095;SDS011;10706;49.036;12.112;2022-08-06T00:18:59;11.00;;;4.43;;
21095;SDS011;10706;49.036;12.112;2022-08-06T00:21:25;16.92;;;4.93;;
21095;SDS011;10706;49.036;12.112;2022-08-06T00:23:51;11.88;;;4.72;;
21095;SDS011;10706;49.036;12.112;2022-08-06T00:26:17;13.80;;;5.13;;
21095;SDS011;10706;49.036;12.112;2022-08-06T00:28:43;11.40;;;4.40;;
21095;SDS011;10706;49.036;12.112;2022-08-06T00:31:08;14.35;;;5.03;;
21095;SDS011;10706;49.036;12.112;2022-08-06T00:33:34;10.05;;;4.10;;
21095;SDS011;10706;49.036;12.112;2022-08-06T00:36:01;15.32;;;4.85;;
21095;SDS011;10706;49.036;12.112;2022-08-06T00:38:27;14.05;;;5.18;;
21095;SDS011;10706;49.036;12.112;2022-08-06T00:40:53;13.63;;;5.28;;
21095;SDS011;10706;49.036;12.112;2022-08-06T00:43:19;12.70;;;4.97;;
21095;SDS011;10706;49.036;12.112;2022-08-06T00:45:45;16.83;;;5.82;;
21095;SDS011;10706;49.036;12.112;2022-08-06T00:48:12;10.25;;;4.28;;
21095;SDS011;10706;49.036;12.112;2022-08-06T00:50:38;14.90;;;5.40;;
21095;SDS011;10706;49.036;12.112;2022-08-06T00:53:04;11.63;;;5.05;;
21095;SDS011;10706;49.036;12.112;2022-08-06T00:55:30;11.65;;;4.70;;
21095;SDS011;10706;49.036;12.112;2022-08-06T00:57:57;10.48;;;4.90;;
21095;SDS011;10706;49.036;12.112;2022-08-06T01:00:23;15.40;;;4.68;;
21095;SDS011;10706;49.036;12.112;2022-08-06T01:02:49;12.07;;;4.63;;
21095;SDS011;10706;49.036;12.112;2022-08-06T01:05:15;12.60;;;5.00;;
21095;SDS011;10706;49.036;12.112;2022-08-06T01:07:40;13.63;;;4.75;;
21095;SDS011;10706;49.036;12.112;2022-08-06T01:10:07;9.55;;;4.40;;
21095;SDS011;10706;49.036;12.112;2022-08-06T01:12:33;10.82;;;4.00;;
21095;SDS011;10706;49.036;12.112;2022-08-06T01:14:59;12.60;;;4.47;;
21095;SDS011;10706;49.036;12.112;2022-08-06T01:17:26;12.07;;;4.18;;
21095;SDS011;10706;49.036;12.112;2022-08-06T01:34:27;13.98;;;4.18;;
21095;SDS011;10706;49.036;12.112;2022-08-06T01:37:11;9.60;;;3.85;;
21095;SDS011;10706;49.036;12.112;2022-08-06T01:39:42;10.43;;;4.15;;
21095;SDS011;10706;49.036;12.112;2022-08-06T01:42:13;10.60;;;3.88;;
21095;SDS011;10706;49.036;12.112;2022-08-06T01:44:43;8.27;;;3.03;;
21095;SDS011;10706;49.036;12.112;2022-08-06T01:47:14;9.05;;;3.38;;
21095;SDS011;10706;49.036;12.112;2022-08-06T01:49:45;8.73;;;3.25;;
21095;SDS011;10706;49.036;12.112;2022-08-06T01:52:17;8.65;;;3.47;;
21095;SDS011;10706;49.036;12.112;2022-08-06T01:54:45;11.90;;;4.15;;
21095;SDS011;10706;49.036;12.112;2022-08-06T01:57:15;10.05;;;4.07;;
21095;SDS011;10706;49.036;12.112;2022-08-06T01:59:44;10.70;;;4.22;;
21095;SDS011;10706;49.036;12.112;2022-08-06T02:02:16;11.27;;;4.20;;
21095;SDS011;10706;49.036;12.112;2022-08-06T02:04:47;11.45;;;4.25;;
21095;SDS011;10706;49.036;12.112;2022-08-06T02:07:19;12.90;;;4.53;;
21095;SDS011;10706;49.036;12.112;2022-08-06T02:09:52;11.88;;;4.85;;
21095;SDS011;10706;49.036;12.112;2022-08-06T02:12:23;12.32;;;4.70;;
21095;SDS011;10706;49.036;12.112;2022-08-06T02:15:03;13.07;;;5.22;;
21095;SDS011;10706;49.036;12.112;2022-08-06T02:17:39;13.38;;;4.85;;
21095;SDS011;10706;49.036;12.112;2022-08-06T02:20:12;17.20;;;5.68;;
21095;SDS011;10706;49.036;12.112;2022-08-06T02:22:43;10.75;;;5.22;;
21095;SDS011;10706;49.036;12.112;2022-08-06T02:25:12;13.38;;;4.90;;
21095;SDS011;10706;49.036;12.112;2022-08-06T02:27:44;12.55;;;5.18;;
21095;SDS011;10706;49.036;12.112;2022-08-06T02:30:15;15.38;;;6.35;;
21095;SDS011;10706;49.036;12.112;2022-08-06T02:32:41;12.68;;;5.57;;
21095;SDS011;10706;49.036;12.112;2022-08-06T02:35:08;14.48;;;5.60;;
21095;SDS011;10706;49.036;12.112;2022-08-06T02:37:43;12.85;;;5.63;;
21095;SDS011;10706;49.036;12.112;2022-08-06T02:40:19;13.55;;;5.85;;
21095;SDS011;10706;49.036;12.112;2022-08-06T02:43:11;11.60;;;4.97;;
21095;SDS011;10706;49.036;12.112;2022-08-06T02:45:48;13.73;;;6.28;;
21095;SDS011;10706;49.036;12.112;2022-08-06T02:48:31;16.30;;;5.65;;
21095;SDS011;10706;49.036;12.112;2022-08-06T02:51:11;11.57;;;5.72;;
21095;SDS011;10706;49.036;12.112;2022-08-06T02:53:46;13.40;;;5.05;;
21095;SDS011;10706;49.036;12.112;2022-08-06T02:56:33;13.60;;;5.97;;
21095;SDS011;10706;49.036;12.112;2022-08-06T02:59:02;14.75;;;6.03;;
21095;SDS011;10706;49.036;12.112;2022-08-06T03:01:33;15.50;;;6.55;;
21095;SDS011;10706;49.036;12.112;2022-08-06T03:04:04;15.45;;;6.28;;
21095;SDS011;10706;49.036;12.112;2022-08-06T03:06:33;14.75;;;6.65;;
21095;SDS011;10706;49.036;12.112;2022-08-06T03:09:02;13.68;;;5.80;;
21095;SDS011;10706;49.036;12.112;2022-08-06T03:11:30;13.90;;;5.63;;
21095;SDS011;10706;49.036;12.112;2022-08-06T03:14:00;13.43;;;6.07;;
21095;SDS011;10706;49.036;12.112;2022-08-06T03:16:29;15.13;;;5.55;;
21095;SDS011;10706;49.036;12.112;2022-08-06T03:18:59;15.10;;;6.03;;
21095;SDS011;10706;49.036;12.112;2022-08-06T03:21:25;11.60;;;4.85;;
21095;SDS011;10706;49.036;12.112;2022-08-06T03:23:54;10.82;;;4.68;;
21095;SDS011;10706;49.036;12.112;2022-08-06T03:26:24;13.27;;;6.10;;
21095;SDS011;10706;49.036;12.112;2022-08-06T03:28:52;10.07;;;4.50;;
21095;SDS011;10706;49.036;12.112;2022-08-06T03:31:21;13.57;;;5.05;;
21095;SDS011;10706;49.036;12.112;2022-08-06T03:33:49;13.50;;;4.95;;
21095;SDS011;10706;49.036;12.112;2022-08-06T03:36:15;16.35;;;4.65;;
21095;SDS011;10706;49.036;12.112;2022-08-06T03:38:47;9.20;;;4.40;;
21095;SDS011;10706;49.036;12.112;2022-08-06T03:41:23;10.80;;;4.63;;
21095;SDS011;10706;49.036;12.112;2022-08-06T03:43:50;9.02;;;4.07;;
21095;SDS011;10706;49.036;12.112;2022-08-06T03:46:20;9.90;;;4.70;;
21095;SDS011;10706;49.036;12.112;2022-08-06T03:49:08;10.45;;;4.63;;
21095;SDS011;10706;49.036;12.112;2022-08-06T03:51:51;13.63;;;5.05;;
21095;SDS011;10706;49.036;12.112;2022-08-06T03:54:24;11.00;;;4.82;;
21095;SDS011;10706;49.036;12.112;2022-08-06T03:57:06;10.60;;;4.75;;
21095;SDS011;10706;49.036;12.112;2022-08-06T03:59:38;9.63;;;4.53;;
21095;SDS011;10706;49.036;12.112;2022-08-06T04:02:07;10.07;;;4.28;;
21095;SDS011;10706;49.036;12.112;2022-08-06T04:04:35;9.43;;;4.28;;
21095;SDS011;10706;49.036;12.112;2022-08-06T04:07:02;11.68;;;4.55;;
21095;SDS011;10706;49.036;12.112;2022-08-06T04:09:29;9.32;;;3.80;;
21095;SDS011;10706;49.036;12.112;2022-08-06T04:11:57;9.80;;;3.83;;
21095;SDS011;10706;49.036;12.112;2022-08-06T04:14:25;11.73;;;4.78;;
21095;SDS011;10706;49.036;12.112;2022-08-06T04:16:51;9.63;;;4.55;;
21095;SDS011;10706;49.036;12.112;2022-08-06T04:19:18;9.38;;;4.18;;
21095;SDS011;10706;49.036;12.112;2022-08-06T04:21:45;11.35;;;4.15;;
21095;SDS011;10706;49.036;12.112;2022-08-06T04:24:12;9.63;;;4.30;;
21095;SDS011;10706;49.036;12.112;2022-08-06T04:26:40;9.30;;;4.28;;
21095;SDS011;10706;49.036;12.112;2022-08-06T04:29:09;8.48;;;4.15;;
21095;SDS011;10706;49.036;12.112;2022-08-06T04:31:40;8.98;;;4.40;;
21095;SDS011;10706;49.036;12.112;2022-08-06T04:34:10;11.68;;;5.00;;
21095;SDS011;10706;49.036;12.112;2022-08-06T04:36:38;12.45;;;5.03;;
21095;SDS011;10706;49.036;12.112;2022-08-06T04:39:05;12.38;;;5.28;;
21095;SDS011;10706;49.036;12.112;2022-08-06T04:41:31;15.70;;;6.13;;
21095;SDS011;10706;49.036;12.112;2022-08-06T04:43:57;13.40;;;6.00;;
21095;SDS011;10706;49.036;12.112;2022-08-06T04:46:23;13.10;;;6.45;;
21095;SDS011;10706;49.036;12.112;2022-08-06T04:48:49;16.55;;;7.28;;
21095;SDS011;10706;49.036;12.112;2022-08-06T04:51:15;15.70;;;7.30;;
21095;SDS011;10706;49.036;12.112;2022-08-06T04:53:41;17.45;;;8.73;;
21095;SDS011;10706;49.036;12.112;2022-08-06T04:56:07;20.30;;;9.10;;
21095;SDS011;10706;49.036;12.112;2022-08-06T04:58:35;19.35;;;10.32;;
21095;SDS011;10706;49.036;12.112;2022-08-06T05:01:01;25.23;;;10.85;;
21095;SDS011;10706;49.036;12.112;2022-08-06T05:03:27;21.02;;;10.18;;
21095;SDS011;10706;49.036;12.112;2022-08-06T05:05:55;21.13;;;9.90;;
21095;SDS011;10706;49.036;12.112;2022-08-06T05:08:24;20.55;;;10.40;;
21095;SDS011;10706;49.036;12.112;2022-08-06T05:10:56;21.52;;;10.52;;
21095;SDS011;10706;49.036;12.112;2022-08-06T05:13:35;21.38;;;9.88;;
21095;SDS011;10706;49.036;12.112;2022-08-06T05:16:05;18.38;;;9.77;;
21095;SDS011;10706;49.036;12.112;2022-08-06T05:18:36;22.65;;;10.60;;
21095;SDS011;10706;49.036;12.112;2022-08-06T05:21:11;22.10;;;10.63;;
21095;SDS011;10706;49.036;12.112;2022-08-06T05:23:44;22.60;;;10.35;;
21095;SDS011;10706;49.036;12.112;2022-08-06T05:26:13;21.05;;;10.52;;
21095;SDS011;10706;49.036;12.112;2022-08-06T05:28:39;22.80;;;10.60;;
21095;SDS011;10706;49.036;12.112;2022-08-06T05:31:06;20.73;;;10.73;;
21095;SDS011;10706;49.036;12.112;2022-08-06T05:33:34;22.65;;;10.13;;
21095;SDS011;10706;49.036;12.112;2022-08-06T05:36:02;21.73;;;10.55;;
21095;SDS011;10706;49.036;12.112;2022-08-06T05:38:36;25.35;;;10.77;;
21095;SDS011;10706;49.036;12.112;2022-08-06T05:41:05;22.58;;;10.40;;
21095;SDS011;10706;49.036;12.112;2022-08-06T05:43:38;21.35;;;9.80;;
21095;SDS011;10706;49.036;12.112;2022-08-06T05:46:09;20.52;;;10.65;;
21095;SDS011;10706;49.036;12.112;2022-08-06T05:48:53;19.83;;;10.63;;
21095;SDS011;10706;49.036;12.112;2022-08-06T05:51:51;18.20;;;10.18;;
21095;SDS011;10706;49.036;12.112;2022-08-06T05:54:32;21.33;;;10.30;;
21095;SDS011;10706;49.036;12.112;2022-08-06T05:57:19;22.33;;;10.57;;
21095;SDS011;10706;49.036;12.112;2022-08-06T06:00:12;19.88;;;10.27;;
21095;SDS011;10706;49.036;12.112;2022-08-06T06:02:46;20.25;;;10.70;;
21095;SDS011;10706;49.036;12.112;2022-08-06T06:05:14;16.70;;;9.70;;
21095;SDS011;10706;49.036;12.112;2022-08-06T06:07:40;21.05;;;11.35;;
21095;SDS011;10706;49.036;12.112;2022-08-06T06:10:07;21.45;;;10.35;;
21095;SDS011;10706;49.036;12.112;2022-08-06T06:12:34;20.98;;;11.27;;
21095;SDS011;10706;49.036;12.112;2022-08-06T06:15:02;18.90;;;9.73;;
21095;SDS011;10706;49.036;12.112;2022-08-06T06:20:17;20.80;;;10.95;;
21095;SDS011;10706;49.036;12.112;2022-08-06T06:23:06;20.73;;;10.07;;
21095;SDS011;10706;49.036;12.112;2022-08-06T06:26:10;18.65;;;9.40;;
21095;SDS011;10706;49.036;12.112;2022-08-06T06:34:07;18.55;;;9.10;;
21095;SDS011;10706;49.036;12.112;2022-08-06T06:36:46;17.58;;;8.88;;
21095;SDS011;10706;49.036;12.112;2022-08-06T06:42:36;18.23;;;9.68;;
21095;SDS011;10706;49.036;12.112;2022-08-06T06:45:13;16.30;;;8.60;;
21095;SDS011;10706;49.036;12.112;2022-08-06T06:47:58;18.17;;;10.07;;
21095;SDS011;10706;49.036;12.112;2022-08-06T06:50:33;17.98;;;8.45;;
21095;SDS011;10706;49.036;12.112;2022-08-06T06:53:10;19.35;;;10.45;;
21095;SDS011;10706;49.036;12.112;2022-08-06T06:55:38;19.45;;;10.05;;
21095;SDS011;10706;49.036;12.112;2022-08-06T06:58:31;17.20;;;8.35;;
21095;SDS011;10706;49.036;12.112;2022-08-06T07:01:06;15.90;;;8.35;;
21095;SDS011;10706;49.036;12.112;2022-08-06T07:03:38;17.58;;;7.78;;
21095;SDS011;10706;49.036;12.112;2022-08-06T07:06:06;18.05;;;8.93;;
21095;SDS011;10706;49.036;12.112;2022-08-06T07:08:34;14.80;;;8.15;;
21095;SDS011;10706;49.036;12.112;2022-08-06T07:11:10;16.05;;;8.18;;
21095;SDS011;10706;49.036;12.112;2022-08-06T07:13:46;18.17;;;9.95;;
21095;SDS011;10706;49.036;12.112;2022-08-06T07:16:16;19.08;;;9.60;;
21095;SDS011;10706;49.036;12.112;2022-08-06T07:18:45;16.02;;;7.90;;
21095;SDS011;10706;49.036;12.112;2022-08-06T07:21:14;15.50;;;8.27;;
21095;SDS011;10706;49.036;12.112;2022-08-06T07:23:43;15.50;;;8.77;;
21095;SDS011;10706;49.036;12.112;2022-08-06T07:26:13;17.38;;;8.38;;
21095;SDS011;10706;49.036;12.112;2022-08-06T07:28:42;17.15;;;8.55;;
21095;SDS011;10706;49.036;12.112;2022-08-06T07:31:08;17.30;;;8.57;;
21095;SDS011;10706;49.036;12.112;2022-08-06T07:33:37;16.35;;;8.52;;
21095;SDS011;10706;49.036;12.112;2022-08-06T07:36:06;16.48;;;8.45;;
21095;SDS011;10706;49.036;12.112;2022-08-06T07:38:34;15.95;;;8.65;;
21095;SDS011;10706;49.036;12.112;2022-08-06T07:41:05;14.95;;;7.72;;
21095;SDS011;10706;49.036;12.112;2022-08-06T07:43:38;14.45;;;7.75;;
21095;SDS011;10706;49.036;12.112;2022-08-06T07:46:18;16.88;;;8.55;;
21095;SDS011;10706;49.036;12.112;2022-08-06T07:48:49;19.88;;;7.75;;
21095;SDS011;10706;49.036;12.112;2022-08-06T07:51:20;15.63;;;7.18;;
21095;SDS011;10706;49.036;12.112;2022-08-06T07:53:50;16.30;;;7.20;;
21095;SDS011;10706;49.036;12.112;2022-08-06T07:56:17;16.13;;;7.45;;
21095;SDS011;10706;49.036;12.112;2022-08-06T07:58:44;11.85;;;6.40;;
21095;SDS011;10706;49.036;12.112;2022-08-06T08:01:13;12.77;;;6.13;;
21095;SDS011;10706;49.036;12.112;2022-08-06T08:03:39;14.48;;;7.00;;
21095;SDS011;10706;49.036;12.112;2022-08-06T08:06:25;11.65;;;6.10;;
21095;SDS011;10706;49.036;12.112;2022-08-06T08:09:00;13.02;;;6.10;;
21095;SDS011;10706;49.036;12.112;2022-08-06T08:11:31;11.50;;;5.35;;
21095;SDS011;10706;49.036;12.112;2022-08-06T08:13:59;11.13;;;5.38;;
21095;SDS011;10706;49.036;12.112;2022-08-06T08:16:27;11.63;;;5.38;;
21095;SDS011;10706;49.036;12.112;2022-08-06T08:18:56;12.82;;;5.28;;
21095;SDS011;10706;49.036;12.112;2022-08-06T08:21:22;9.48;;;4.72;;
21095;SDS011;10706;49.036;12.112;2022-08-06T08:23:50;10.82;;;5.05;;
21095;SDS011;10706;49.036;12.112;2022-08-06T08:26:16;13.75;;;5.10;;
21095;SDS011;10706;49.036;12.112;2022-08-06T08:28:42;12.73;;;4.25;;
21095;SDS011;10706;49.036;12.112;2022-08-06T08:31:07;11.05;;;4.60;;
21095;SDS011;10706;49.036;12.112;2022-08-06T08:33:33;11.07;;;4.78;;
21095;SDS011;10706;49.036;12.112;2022-08-06T08:36:00;10.52;;;4.43;;
21095;SDS011;10706;49.036;12.112;2022-08-06T08:38:30;13.88;;;4.55;;
21095;SDS011;10706;49.036;12.112;2022-08-06T08:41:03;11.05;;;4.88;;
21095;SDS011;10706;49.036;12.112;2022-08-06T08:43:42;8.43;;;4.13;;
21095;SDS011;10706;49.036;12.112;2022-08-06T08:46:13;11.57;;;4.72;;
21095;SDS011;10706;49.036;12.112;2022-08-06T08:48:40;11.95;;;4.28;;
21095;SDS011;10706;49.036;12.112;2022-08-06T08:51:08;11.77;;;4.32;;
21095;SDS011;10706;49.036;12.112;2022-08-06T08:53:37;10.48;;;4.35;;
21095;SDS011;10706;49.036;12.112;2022-08-06T08:56:09;11.07;;;4.32;;
21095;SDS011;10706;49.036;12.112;2022-08-06T08:58:40;8.60;;;3.97;;
21095;SDS011;10706;49.036;12.112;2022-08-06T09:01:06;10.18;;;4.43;;
21095;SDS011;10706;49.036;12.112;2022-08-06T09:03:37;12.23;;;4.38;;
21095;SDS011;10706;49.036;12.112;2022-08-06T09:06:05;9.63;;;4.63;;
21095;SDS011;10706;49.036;12.112;2022-08-06T09:08:32;8.88;;;4.00;;
21095;SDS011;10706;49.036;12.112;2022-08-06T09:10:58;7.88;;;3.92;;
21095;SDS011;10706;49.036;12.112;2022-08-06T09:13:28;15.00;;;4.57;;
21095;SDS011;10706;49.036;12.112;2022-08-06T09:15:54;11.52;;;4.63;;
21095;SDS011;10706;49.036;12.112;2022-08-06T09:18:22;8.32;;;4.07;;
21095;SDS011;10706;49.036;12.112;2022-08-06T09:20:49;8.75;;;4.43;;
21095;SDS011;10706;49.036;12.112;2022-08-06T09:23:15;11.32;;;4.85;;
21095;SDS011;10706;49.036;12.112;2022-08-06T09:25:42;8.52;;;4.10;;
21095;SDS011;10706;49.036;12.112;2022-08-06T09:28:49;7.88;;;4.15;;
21095;SDS011;10706;49.036;12.112;2022-08-06T09:31:09;9.65;;;4.13;;
21095;SDS011;10706;49.036;12.112;2022-08-06T09:33:38;12.60;;;4.38;;
21095;SDS011;10706;49.036;12.112;2022-08-06T09:36:09;15.98;;;4.35;;
21095;SDS011;10706;49.036;12.112;2022-08-06T09:38:50;8.32;;;3.47;;
21095;SDS011;10706;49.036;12.112;2022-08-06T09:41:20;8.45;;;3.40;;
21095;SDS011;10706;49.036;12.112;2022-08-06T09:43:48;7.05;;;3.55;;
21095;SDS011;10706;49.036;12.112;2022-08-06T09:49:22;8.20;;;3.58;;
21095;SDS011;10706;49.036;12.112;2022-08-06T09:51:48;6.88;;;3.22;;
21095;SDS011;10706;49.036;12.112;2022-08-06T09:54:14;8.98;;;3.65;;
21095;SDS011;10706;49.036;12.112;2022-08-06T09:56:45;7.80;;;3.45;;
21095;SDS011;10706;49.036;12.112;2022-08-06T09:59:20;9.38;;;3.38;;
21095;SDS011;10706;49.036;12.112;2022-08-06T10:01:46;7.90;;;3.30;;
21095;SDS011;10706;49.036;12.112;2022-08-06T10:04:24;6.15;;;3.20;;
21095;SDS011;10706;49.036;12.112;2022-08-06T10:06:57;6.10;;;2.60;;
21095;SDS011;10706;49.036;12.112;2022-08-06T10:09:26;4.55;;;2.60;;
21095;SDS011;10706;49.036;12.112;2022-08-06T10:11:53;6.25;;;2.90;;
21095;SDS011;10706;49.036;12.112;2022-08-06T10:14:29;8.45;;;3.05;;
21095;SDS011;10706;49.036;12.112;2022-08-06T10:19:45;6.75;;;2.83;;
21095;SDS011;10706;49.036;12.112;2022-08-06T10:22:33;7.40;;;3.10;;
21095;SDS011;10706;49.036;12.112;2022-08-06T10:25:01;4.85;;;2.60;;
21095;SDS011;10706;49.036;12.112;2022-08-06T10:27:29;8.02;;;2.58;;
21095;SDS011;10706;49.036;12.112;2022-08-06T10:30:03;6.13;;;2.80;;
21095;SDS011;10706;49.036;12.112;2022-08-06T10:32:36;5.60;;;2.97;;
21095;SDS011;10706;49.036;12.112;2022-08-06T10:35:20;4.03;;;2.40;;
21095;SDS011;10706;49.036;12.112;2022-08-06T10:37:52;6.05;;;2.80;;
21095;SDS011;10706;49.036;12.112;2022-08-06T10:40:28;3.90;;;2.13;;
21095;SDS011;10706;49.036;12.112;2022-08-06T10:42:58;5.47;;;2.13;;
21095;SDS011;10706;49.036;12.112;2022-08-06T10:45:28;7.30;;;2.58;;
21095;SDS011;10706;49.036;12.112;2022-08-06T10:47:55;3.90;;;2.30;;
21095;SDS011;10706;49.036;12.112;2022-08-06T10:50:22;5.45;;;2.40;;
21095;SDS011;10706;49.036;12.112;2022-08-06T10:52:49;7.63;;;2.50;;
21095;SDS011;10706;49.036;12.112;2022-08-06T10:55:15;6.20;;;2.50;;
21095;SDS011;10706;49.036;12.112;2022-08-06T10:57:42;7.57;;;2.38;;
21095;SDS011;10706;49.036;12.112;2022-08-06T11:00:09;4.78;;;2.30;;
21095;SDS011;10706;49.036;12.112;2022-08-06T11:06:08;6.40;;;2.53;;
21095;SDS011;10706;49.036;12.112;2022-08-06T11:09:29;4.32;;;2.35;;
21095;SDS011;10706;49.036;12.112;2022-08-06T11:15:17;4.43;;;2.30;;
21095;SDS011;10706;49.036;12.112;2022-08-06T11:17:45;7.18;;;2.63;;
21095;SDS011;10706;49.036;12.112;2022-08-06T11:25:47;7.05;;;2.70;;
21095;SDS011;10706;49.036;12.112;2022-08-06T11:30:54;4.97;;;2.65;;
21095;SDS011;10706;49.036;12.112;2022-08-06T11:35:58;7.00;;;2.28;;
21095;SDS011;10706;49.036;12.112;2022-08-06T11:41:28;3.92;;;2.20;;
21095;SDS011;10706;49.036;12.112;2022-08-06T11:51:43;4.85;;;2.13;;
21095;SDS011;10706;49.036;12.112;2022-08-06T11:54:26;4.65;;;2.10;;
21095;SDS011;10706;49.036;12.112;2022-08-06T11:57:25;5.28;;;2.50;;
21095;SDS011;10706;49.036;12.112;2022-08-06T12:00:03;3.25;;;2.03;;
21095;SDS011;10706;49.036;12.112;2022-08-06T12:05:06;4.40;;;1.92;;
21095;SDS011;10706;49.036;12.112;2022-08-06T12:07:41;4.10;;;2.10;;
21095;SDS011;10706;49.036;12.112;2022-08-06T12:10:11;8.65;;;2.22;;
21095;SDS011;10706;49.036;12.112;2022-08-06T12:23:08;4.18;;;2.10;;
21095;SDS011;10706;49.036;12.112;2022-08-06T12:25:35;6.18;;;2.22;;
21095;SDS011;10706;49.036;12.112;2022-08-06T12:28:07;3.75;;;2.25;;
21095;SDS011;10706;49.036;12.112;2022-08-06T12:30:41;4.32;;;2.00;;
21095;SDS011;10706;49.036;12.112;2022-08-06T12:33:09;4.22;;;1.95;;
21095;SDS011;10706;49.036;12.112;2022-08-06T12:35:35;4.20;;;2.03;;
21095;SDS011;10706;49.036;12.112;2022-08-06T12:38:12;6.13;;;1.98;;
21095;SDS011;10706;49.036;12.112;2022-08-06T12:40:39;3.13;;;1.70;;
21095;SDS011;10706;49.036;12.112;2022-08-06T12:43:24;4.82;;;1.80;;
21095;SDS011;10706;49.036;12.112;2022-08-06T12:45:56;4.63;;;1.80;;
21095;SDS011;10706;49.036;12.112;2022-08-06T12:48:26;5.25;;;1.95;;
21095;SDS011;10706;49.036;12.112;2022-08-06T12:51:11;5.75;;;1.83;;
21095;SDS011;10706;49.036;12.112;2022-08-06T12:53:41;4.05;;;1.70;;
21095;SDS011;10706;49.036;12.112;2022-08-06T12:56:16;5.43;;;1.80;;
21095;SDS011;10706;49.036;12.112;2022-08-06T12:58:43;4.13;;;1.90;;
21095;SDS011;10706;49.036;12.112;2022-08-06T13:01:11;5.85;;;2.10;;
21095;SDS011;10706;49.036;12.112;2022-08-06T13:03:48;6.10;;;1.90;;
21095;SDS011;10706;49.036;12.112;2022-08-06T13:06:18;3.92;;;1.65;;
21095;SDS011;10706;49.036;12.112;2022-08-06T13:08:48;4.28;;;1.67;;
21095;SDS011;10706;49.036;12.112;2022-08-06T13:11:16;3.72;;;2.10;;
21095;SDS011;10706;49.036;12.112;2022-08-06T13:13:45;2.53;;;1.58;;
21095;SDS011;10706;49.036;12.112;2022-08-06T13:16:15;4.32;;;1.50;;
21095;SDS011;10706;49.036;12.112;2022-08-06T13:18:43;4.53;;;1.50;;
21095;SDS011;10706;49.036;12.112;2022-08-06T13:21:30;1.98;;;1.30;;
21095;SDS011;10706;49.036;12.112;2022-08-06T13:23:56;2.95;;;1.30;;
21095;SDS011;10706;49.036;12.112;2022-08-06T13:26:23;2.53;;;1.50;;
21095;SDS011;10706;49.036;12.112;2022-08-06T13:29:04;4.78;;;1.60;;
21095;SDS011;10706;49.036;12.112;2022-08-06T13:31:56;4.03;;;1.77;;
21095;SDS011;10706;49.036;12.112;2022-08-06T13:34:27;4.63;;;1.80;;
21095;SDS011;10706;49.036;12.112;2022-08-06T13:36:54;4.18;;;1.70;;
21095;SDS011;10706;49.036;12.112;2022-08-06T13:39:26;3.75;;;1.50;;
21095;SDS011;10706;49.036;12.112;2022-08-06T13:42:10;2.25;;;1.40;;
21095;SDS011;10706;49.036;12.112;2022-08-06T13:44:45;3.15;;;1.48;;
21095;SDS011;10706;49.036;12.112;2022-08-06T13:47:12;1.58;;;1.20;;
21095;SDS011;10706;49.036;12.112;2022-08-06T13:49:42;5.85;;;1.77;;
21095;SDS011;10706;49.036;12.112;2022-08-06T13:52:09;2.88;;;1.55;;
21095;SDS011;10706;49.036;12.112;2022-08-06T13:54:36;4.25;;;1.63;;
21095;SDS011;10706;49.036;12.112;2022-08-06T13:57:02;4.82;;;1.52;;
21095;SDS011;10706;49.036;12.112;2022-08-06T13:59:29;3.72;;;1.60;;
21095;SDS011;10706;49.036;12.112;2022-08-06T14:01:57;4.75;;;1.90;;
21095;SDS011;10706;49.036;12.112;2022-08-06T14:04:25;3.55;;;1.33;;
21095;SDS011;10706;49.036;12.112;2022-08-06T14:06:53;6.50;;;1.80;;
21095;SDS011;10706;49.036;12.112;2022-08-06T14:09:22;2.20;;;1.42;;
21095;SDS011;10706;49.036;12.112;2022-08-06T14:11:54;3.88;;;1.48;;
21095;SDS011;10706;49.036;12.112;2022-08-06T14:14:25;2.85;;;1.48;;
21095;SDS011;10706;49.036;12.112;2022-08-06T14:16:56;5.55;;;1.88;;
21095;SDS011;10706;49.036;12.112;2022-08-06T14:19:24;5.13;;;1.70;;
21095;SDS011;10706;49.036;12.112;2022-08-06T14:21:51;4.10;;;1.60;;
21095;SDS011;10706;49.036;12.112;2022-08-06T14:24:17;3.50;;;1.88;;
21095;SDS011;10706;49.036;12.112;2022-08-06T14:26:43;5.55;;;1.42;;
21095;SDS011;10706;49.036;12.112;2022-08-06T14:29:09;4.18;;;1.50;;
21095;SDS011;10706;49.036;12.112;2022-08-06T14:31:34;2.30;;;1.30;;
21095;SDS011;10706;49.036;12.112;2022-08-06T14:34:00;2.35;;;1.50;;
21095;SDS011;10706;49.036;12.112;2022-08-06T14:36:27;4.82;;;1.25;;
21095;SDS011;10706;49.036;12.112;2022-08-06T14:38:53;3.75;;;1.55;;
21095;SDS011;10706;49.036;12.112;2022-08-06T14:41:19;3.83;;;1.27;;
21095;SDS011;10706;49.036;12.112;2022-08-06T14:44:14;2.10;;;1.13;;
21095;SDS011;10706;49.036;12.112;2022-08-06T14:46:58;1.98;;;1.20;;
21095;SDS011;10706;49.036;12.112;2022-08-06T14:49:24;3.30;;;1.20;;
21095;SDS011;10706;49.036;12.112;2022-08-06T14:51:50;4.03;;;1.50;;
21095;SDS011;10706;49.036;12.112;2022-08-06T14:54:16;2.03;;;1.10;;
21095;SDS011;10706;49.036;12.112;2022-08-06T14:56:43;2.92;;;1.50;;
21095;SDS011;10706;49.036;12.112;2022-08-06T14:59:12;3.65;;;1.52;;
21095;SDS011;10706;49.036;12.112;2022-08-06T15:01:39;2.33;;;1.17;;
21095;SDS011;10706;49.036;12.112;2022-08-06T15:04:04;3.25;;;1.40;;
21095;SDS011;10706;49.036;12.112;2022-08-06T15:06:31;2.70;;;1.40;;
21095;SDS011;10706;49.036;12.112;2022-08-06T15:08:56;1.52;;;1.10;;
21095;SDS011;10706;49.036;12.112;2022-08-06T15:11:22;3.13;;;1.60;;
21095;SDS011;10706;49.036;12.112;2022-08-06T15:13:48;3.88;;;1.42;;
21095;SDS011;10706;49.036;12.112;2022-08-06T15:16:14;6.00;;;1.60;;
21095;SDS011;10706;49.036;12.112;2022-08-06T15:18:39;1.60;;;1.40;;
21095;SDS011;10706;49.036;12.112;2022-08-06T15:21:07;2.55;;;1.20;;
21095;SDS011;10706;49.036;12.112;2022-08-06T15:23:34;4.53;;;1.67;;
21095;SDS011;10706;49.036;12.112;2022-08-06T15:26:00;4.20;;;1.40;;
21095;SDS011;10706;49.036;12.112;2022-08-06T15:28:25;7.90;;;1.70;;
21095;SDS011;10706;49.036;12.112;2022-08-06T15:30:51;3.70;;;1.30;;
21095;SDS011;10706;49.036;12.112;2022-08-06T15:33:17;1.45;;;1.20;;
21095;SDS011;10706;49.036;12.112;2022-08-06T15:35:43;2.55;;;1.25;;
21095;SDS011;10706;49.036;12.112;2022-08-06T15:38:10;1.85;;;1.40;;
21095;SDS011;10706;49.036;12.112;2022-08-06T15:40:37;4.88;;;1.40;;
21095;SDS011;10706;49.036;12.112;2022-08-06T15:43:04;5.55;;;1.60;;
21095;SDS011;10706;49.036;12.112;2022-08-06T15:45:29;2.10;;;1.13;;
21095;SDS011;10706;49.036;12.112;2022-08-06T15:47:55;2.85;;;1.38;;
21095;SDS011;10706;49.036;12.112;2022-08-06T15:50:23;4.30;;;1.42;;
21095;SDS011;10706;49.036;12.112;2022-08-06T15:52:50;2.67;;;1.60;;
21095;SDS011;10706;49.036;12.112;2022-08-06T15:55:16;2.25;;;1.38;;
21095;SDS011;10706;49.036;12.112;2022-08-06T15:57:42;2.38;;;1.40;;
21095;SDS011;10706;49.036;12.112;2022-08-06T16:00:09;2.10;;;1.20;;